Flight Track Log - Related Links

Times and Time Zones

All times are in EDT time to prevent confusion due to time zone crossing. See the EJA941 flight status page for this flight to view local times or setup timezone preferences in your user account.


Time Position Orientation Groundspeed Altitude Reporting Facility
EDT Latitude Longitude Course Direction KTS MPH feet Rate Location/Type
Mon 02:59:07 PM 41.2522 -70.1706 270° West 246 283 4,600  Level Boston Center
Mon 03:00:07 PM 41.3033 -70.2267 320° Northwest 252 290 7,400 3,025 Climbing Boston Center
Mon 03:01:08 PM 41.3306 -70.3419 287° West 252 290 10,700 2,200 Climbing Boston Center
Mon 03:02:07 PM 41.3486 -70.4269 286° West 271 312 11,800 1,500 Climbing Boston Center
Mon 03:03:08 PM 41.3867 -70.5808 288° West 333 383 13,700 1,392 Climbing Boston Center
Mon 03:04:00 PM 41.4688 -70.8208 304° West  Level FlightAware Approximate
Mon 03:05:00 PM 41.5167 -70.9419 270° West  Level FlightAware Approximate
Mon 03:05:08 PM 41.4800 -70.8219 297° West 368 423 16,000  Level Boston Center
Mon 03:06:08 PM 41.5342 -70.9536 299° West 386 444 16,000  Level Boston Center
Mon 03:07:08 PM 41.5856 -71.0803 299° West 396 456 16,000  Level Boston Center
Mon 03:08:08 PM 41.6331 -71.2014 298° West 379 436 16,000  Level Boston Center
Mon 03:09:08 PM 41.6758 -71.3200 296° West 362 417 16,000  Level Boston Center
Mon 03:10:08 PM 41.7186 -71.4417 295° West 361 415 16,000  Level Boston Center
Mon 03:12:08 PM 41.8125 -71.7075 295° West 389 448 16,000  Level Boston Center
Mon 03:13:08 PM 41.8547 -71.8242 296° West 395 455 16,000  Level Boston Center
Mon 03:14:08 PM 41.8928 -71.9464 293° West 371 427 16,000  Level Boston Center
Mon 03:15:08 PM 41.9392 -72.0717 296° West 356 410 16,000  Level Boston Center
Mon 03:16:08 PM 41.9769 -72.1803 295° West 351 404 16,000  Level Boston Center
Mon 03:17:08 PM 42.0231 -72.3144 295° West 356 410 16,000 50 Level Boston Center
Mon 03:18:08 PM 42.0628 -72.4233 296° West 356 410 16,100 50 Climbing Boston Center
Mon 03:19:08 PM 42.1086 -72.5606 294° West 361 415 16,100  Level Boston Center
Mon 03:20:07 PM 42.1397 -72.6472 296° West 361 415 16,100  Level Boston Center
Mon 03:21:08 PM 42.1558 -72.8097 278° West 338 389 16,100  Level Boston Center
Mon 03:22:20 PM 42.1492 -72.9497 266° West 333 383 16,100  Level Boston Center
Mon 03:23:20 PM 42.1381 -73.0839 264° West 333 383 16,100  Level Boston Center
Mon 03:24:20 PM 42.1311 -73.1958 265° West 333 383 16,100  Level Boston Center
Mon 03:25:20 PM 42.1217 -73.3303 265° West 333 383 16,100 -100 Level Boston Center
Mon 03:26:20 PM 42.1125 -73.4475 264° West 333 383 15,900 -100 Descending Boston Center
Mon 03:27:20 PM 42.1031 -73.5733 264° West 340 391 15,900  Level Boston Center
Mon 03:28:20 PM 42.0808 -73.7044 257° West 351 404 15,900 50 Level Boston Center
Mon 03:29:20 PM 42.0356 -73.8181 242° Southwest 352 405 16,000 -100 Climbing Boston Center
Mon 03:30:20 PM 41.9839 -73.9483 242° Southwest 361 415 15,700 -550 Descending Boston Center
Mon 03:31:20 PM 41.9492 -74.0481 245° Southwest 361 415 14,900 -1,050 Descending Boston Center
Mon 03:32:20 PM 41.9058 -74.1556 242° Southwest 319 367 13,600 -1,500 Descending Boston Center
Mon 03:33:20 PM 41.8669 -74.2578 243° Southwest 294 338 11,900 -1,300 Descending Boston Center
Mon 03:34:20 PM 41.8342 -74.3375 241° Southwest 280 322 11,000 -1,000 Descending Boston Center
Mon 03:35:20 PM 41.7992 -74.4369 245° Southwest 280 322 9,900 -1,000 Descending Boston Center
Mon 03:36:20 PM 41.7667 -74.5081 239° Southwest 269 310 9,000 -1,000 Descending Boston Center
Mon 03:37:20 PM 41.6911 -74.5392 197° South 255 293 7,900 -950 Descending Boston Center
Mon 03:38:20 PM 41.6261 -74.5536 189° South 255 293 7,100 -550 Descending Boston Center
Mon 03:39:20 PM 41.5550 -74.5650 187° South 248 285 6,800 -550 Descending Boston Center
Mon 03:40:20 PM 41.4922 -74.5769 188° South 249 287 6,000 -206 Descending Boston Center
Mon 03:42:44 PM 41.3167 -74.6333 194° South 258 297 6,100 -294 Climbing New York TRACON
Mon 03:43:44 PM 41.2500 -74.6167 169° South 255 293 5,000 -1,000 Descending New York TRACON
Mon 03:44:44 PM 41.1833 -74.5667 151° Southeast 254 292 4,100 -450 Descending New York TRACON
Mon 03:45:44 PM 41.1667 -74.4833 105° East 267 307 4,100 -345 Level New York TRACON
Mon 03:47:38 PM 41.1167 -74.3333 114° Southeast 245 282 3,100 -345 Descending New York TRACON
Mon 03:48:38 PM 41.0833 -74.2333 114° Southeast 243 280 3,100  Level New York TRACON
Mon 03:49:38 PM 41.0667 -74.1667 108° East 187 215 3,100 -250 Level New York TRACON
Mon 03:50:38 PM 41.0500 -74.1167 114° Southeast 193 222 2,600 -500 Descending New York TRACON
Mon 03:51:38 PM 41.0167 -74.0667 131° Southeast 174 200 2,100 -250 Descending New York TRACON
Mon 03:52:38 PM 40.9667 -74.0500 166° South 174 200 2,100 -333 Level New York TRACON
Mon 03:53:44 PM 40.9167 -74.0500 180° South 134 154 1,400 -667 Descending New York TRACON
Mon 03:54:44 PM 40.8833 -74.0500 180° South 124 143 700 -700 Descending New York TRACON
Mon 03:56:00 PM 40.8500 -74.0500 150° Southeast  Level FlightAware Approximate

Login

Don't have an account? Register now (free) for customized features, flight alerts, and more!